sensor_id;sensor_type;location;lat;lon;timestamp;P1;durP1;ratioP1;P2;durP2;ratioP2
59685;SDS011;45554;51.096;16.976;2023-07-31T00:02:04;7.70;;;2.70;;
59685;SDS011;45554;51.096;16.976;2023-07-31T00:04:32;8.40;;;2.90;;
59685;SDS011;45554;51.096;16.976;2023-07-31T00:07:01;4.80;;;2.80;;
59685;SDS011;45554;51.096;16.976;2023-07-31T00:09:34;6.90;;;2.90;;
59685;SDS011;45554;51.096;16.976;2023-07-31T00:12:03;5.20;;;2.60;;
59685;SDS011;45554;51.096;16.976;2023-07-31T00:14:31;8.80;;;3.30;;
59685;SDS011;45554;51.096;16.976;2023-07-31T00:16:59;5.50;;;3.30;;
59685;SDS011;45554;51.096;16.976;2023-07-31T00:19:28;5.40;;;2.90;;
59685;SDS011;45554;51.096;16.976;2023-07-31T00:21:56;6.20;;;2.90;;
59685;SDS011;45554;51.096;16.976;2023-07-31T00:24:23;9.10;;;2.80;;
59685;SDS011;45554;51.096;16.976;2023-07-31T00:26:52;8.30;;;2.90;;
59685;SDS011;45554;51.096;16.976;2023-07-31T00:29:20;7.20;;;2.90;;
59685;SDS011;45554;51.096;16.976;2023-07-31T00:31:48;5.70;;;2.60;;
59685;SDS011;45554;51.096;16.976;2023-07-31T00:34:18;7.30;;;2.60;;
59685;SDS011;45554;51.096;16.976;2023-07-31T00:36:46;8.20;;;2.90;;
59685;SDS011;45554;51.096;16.976;2023-07-31T00:39:16;7.50;;;2.70;;
59685;SDS011;45554;51.096;16.976;2023-07-31T00:41:45;4.80;;;2.30;;
59685;SDS011;45554;51.096;16.976;2023-07-31T00:44:13;5.90;;;2.50;;
59685;SDS011;45554;51.096;16.976;2023-07-31T00:46:41;7.90;;;2.40;;
59685;SDS011;45554;51.096;16.976;2023-07-31T00:49:09;8.30;;;2.50;;
59685;SDS011;45554;51.096;16.976;2023-07-31T00:51:38;8.00;;;2.50;;
59685;SDS011;45554;51.096;16.976;2023-07-31T00:54:06;6.30;;;2.40;;
59685;SDS011;45554;51.096;16.976;2023-07-31T00:56:34;5.00;;;2.30;;
59685;SDS011;45554;51.096;16.976;2023-07-31T00:59:02;6.40;;;2.10;;
59685;SDS011;45554;51.096;16.976;2023-07-31T01:01:32;6.70;;;2.20;;
59685;SDS011;45554;51.096;16.976;2023-07-31T01:04:01;7.50;;;2.30;;
59685;SDS011;45554;51.096;16.976;2023-07-31T01:09:29;4.80;;;2.10;;
59685;SDS011;45554;51.096;16.976;2023-07-31T01:12:06;4.40;;;2.00;;
59685;SDS011;45554;51.096;16.976;2023-07-31T01:14:37;7.10;;;2.50;;
59685;SDS011;45554;51.096;16.976;2023-07-31T01:17:05;5.20;;;2.20;;
59685;SDS011;45554;51.096;16.976;2023-07-31T01:19:33;5.90;;;2.40;;
59685;SDS011;45554;51.096;16.976;2023-07-31T01:27:34;6.80;;;2.50;;
59685;SDS011;45554;51.096;16.976;2023-07-31T01:30:10;9.30;;;2.50;;
59685;SDS011;45554;51.096;16.976;2023-07-31T01:32:45;8.00;;;2.30;;
59685;SDS011;45554;51.096;16.976;2023-07-31T01:35:16;6.00;;;2.40;;
59685;SDS011;45554;51.096;16.976;2023-07-31T01:37:45;7.40;;;2.60;;
59685;SDS011;45554;51.096;16.976;2023-07-31T01:40:13;7.80;;;2.30;;
59685;SDS011;45554;51.096;16.976;2023-07-31T01:42:42;5.90;;;2.30;;
59685;SDS011;45554;51.096;16.976;2023-07-31T01:45:10;6.00;;;2.30;;
59685;SDS011;45554;51.096;16.976;2023-07-31T01:47:39;6.60;;;2.40;;
59685;SDS011;45554;51.096;16.976;2023-07-31T01:50:07;7.50;;;2.40;;
59685;SDS011;45554;51.096;16.976;2023-07-31T01:52:36;3.60;;;2.00;;
59685;SDS011;45554;51.096;16.976;2023-07-31T01:55:05;7.50;;;2.40;;
59685;SDS011;45554;51.096;16.976;2023-07-31T01:57:34;11.80;;;3.20;;
59685;SDS011;45554;51.096;16.976;2023-07-31T02:00:04;10.10;;;2.70;;
59685;SDS011;45554;51.096;16.976;2023-07-31T02:02:38;7.20;;;2.30;;
59685;SDS011;45554;51.096;16.976;2023-07-31T02:05:07;6.90;;;2.20;;
59685;SDS011;45554;51.096;16.976;2023-07-31T02:07:35;9.30;;;2.50;;
59685;SDS011;45554;51.096;16.976;2023-07-31T02:10:03;5.90;;;2.20;;
59685;SDS011;45554;51.096;16.976;2023-07-31T02:12:32;8.40;;;2.30;;
59685;SDS011;45554;51.096;16.976;2023-07-31T02:15:02;9.80;;;2.30;;
59685;SDS011;45554;51.096;16.976;2023-07-31T02:17:30;8.20;;;2.40;;
59685;SDS011;45554;51.096;16.976;2023-07-31T02:19:59;11.00;;;2.60;;
59685;SDS011;45554;51.096;16.976;2023-07-31T02:22:27;8.20;;;2.00;;
59685;SDS011;45554;51.096;16.976;2023-07-31T02:24:56;8.30;;;2.40;;
59685;SDS011;45554;51.096;16.976;2023-07-31T02:27:24;6.20;;;2.10;;
59685;SDS011;45554;51.096;16.976;2023-07-31T02:29:55;6.00;;;2.20;;
59685;SDS011;45554;51.096;16.976;2023-07-31T02:32:23;7.90;;;2.40;;
59685;SDS011;45554;51.096;16.976;2023-07-31T02:34:51;7.30;;;2.30;;
59685;SDS011;45554;51.096;16.976;2023-07-31T02:37:20;11.70;;;2.80;;
59685;SDS011;45554;51.096;16.976;2023-07-31T02:39:48;7.60;;;2.30;;
59685;SDS011;45554;51.096;16.976;2023-07-31T02:42:16;12.20;;;2.90;;
59685;SDS011;45554;51.096;16.976;2023-07-31T02:44:44;12.30;;;2.90;;
59685;SDS011;45554;51.096;16.976;2023-07-31T02:47:12;8.50;;;2.80;;
59685;SDS011;45554;51.096;16.976;2023-07-31T02:49:40;9.60;;;2.40;;
59685;SDS011;45554;51.096;16.976;2023-07-31T02:52:08;11.40;;;2.90;;
59685;SDS011;45554;51.096;16.976;2023-07-31T02:54:36;6.20;;;2.30;;
59685;SDS011;45554;51.096;16.976;2023-07-31T02:57:04;8.00;;;2.40;;
59685;SDS011;45554;51.096;16.976;2023-07-31T02:59:32;6.90;;;2.50;;
59685;SDS011;45554;51.096;16.976;2023-07-31T03:02:01;6.50;;;2.20;;
59685;SDS011;45554;51.096;16.976;2023-07-31T03:06:58;7.90;;;2.60;;
59685;SDS011;45554;51.096;16.976;2023-07-31T03:11:55;10.10;;;2.70;;
59685;SDS011;45554;51.096;16.976;2023-07-31T03:14:23;8.10;;;2.70;;
59685;SDS011;45554;51.096;16.976;2023-07-31T03:16:52;9.90;;;2.90;;
59685;SDS011;45554;51.096;16.976;2023-07-31T03:19:20;10.20;;;2.60;;
59685;SDS011;45554;51.096;16.976;2023-07-31T03:21:48;8.70;;;2.50;;
59685;SDS011;45554;51.096;16.976;2023-07-31T03:24:16;12.40;;;2.60;;
59685;SDS011;45554;51.096;16.976;2023-07-31T03:26:44;9.40;;;2.80;;
59685;SDS011;45554;51.096;16.976;2023-07-31T03:29:12;10.20;;;2.70;;
59685;SDS011;45554;51.096;16.976;2023-07-31T03:31:40;6.60;;;2.50;;
59685;SDS011;45554;51.096;16.976;2023-07-31T03:34:08;9.70;;;2.70;;
59685;SDS011;45554;51.096;16.976;2023-07-31T03:36:36;5.70;;;2.90;;
59685;SDS011;45554;51.096;16.976;2023-07-31T03:39:05;9.10;;;2.50;;
59685;SDS011;45554;51.096;16.976;2023-07-31T03:41:33;10.10;;;2.80;;
59685;SDS011;45554;51.096;16.976;2023-07-31T03:44:01;7.50;;;2.50;;
59685;SDS011;45554;51.096;16.976;2023-07-31T03:46:31;8.10;;;2.70;;
59685;SDS011;45554;51.096;16.976;2023-07-31T03:48:59;8.60;;;2.60;;
59685;SDS011;45554;51.096;16.976;2023-07-31T03:51:27;5.90;;;2.20;;
59685;SDS011;45554;51.096;16.976;2023-07-31T03:53:55;7.90;;;2.80;;
59685;SDS011;45554;51.096;16.976;2023-07-31T03:56:24;7.20;;;2.30;;
59685;SDS011;45554;51.096;16.976;2023-07-31T03:58:52;7.80;;;2.50;;
59685;SDS011;45554;51.096;16.976;2023-07-31T04:01:20;8.00;;;2.40;;
59685;SDS011;45554;51.096;16.976;2023-07-31T04:03:48;6.80;;;2.50;;
59685;SDS011;45554;51.096;16.976;2023-07-31T04:06:17;10.10;;;2.60;;
59685;SDS011;45554;51.096;16.976;2023-07-31T04:08:45;5.00;;;2.10;;
59685;SDS011;45554;51.096;16.976;2023-07-31T04:11:14;7.90;;;2.70;;
59685;SDS011;45554;51.096;16.976;2023-07-31T04:13:42;6.20;;;2.60;;
59685;SDS011;45554;51.096;16.976;2023-07-31T04:16:10;5.30;;;2.40;;
59685;SDS011;45554;51.096;16.976;2023-07-31T04:18:38;5.70;;;2.10;;
59685;SDS011;45554;51.096;16.976;2023-07-31T04:21:07;5.30;;;2.20;;
59685;SDS011;45554;51.096;16.976;2023-07-31T04:23:35;7.60;;;2.40;;
59685;SDS011;45554;51.096;16.976;2023-07-31T04:26:03;8.40;;;2.60;;
59685;SDS011;45554;51.096;16.976;2023-07-31T04:28:31;9.30;;;2.50;;
59685;SDS011;45554;51.096;16.976;2023-07-31T04:31:00;7.40;;;2.30;;
59685;SDS011;45554;51.096;16.976;2023-07-31T04:33:28;7.80;;;2.60;;
59685;SDS011;45554;51.096;16.976;2023-07-31T04:35:56;7.50;;;2.40;;
59685;SDS011;45554;51.096;16.976;2023-07-31T04:38:24;6.50;;;2.70;;
59685;SDS011;45554;51.096;16.976;2023-07-31T04:40:52;6.70;;;2.60;;
59685;SDS011;45554;51.096;16.976;2023-07-31T04:43:20;7.10;;;3.20;;
59685;SDS011;45554;51.096;16.976;2023-07-31T04:45:48;7.80;;;2.50;;
59685;SDS011;45554;51.096;16.976;2023-07-31T04:48:17;8.70;;;3.00;;
59685;SDS011;45554;51.096;16.976;2023-07-31T04:50:45;9.40;;;2.70;;
59685;SDS011;45554;51.096;16.976;2023-07-31T04:53:14;9.20;;;2.60;;
59685;SDS011;45554;51.096;16.976;2023-07-31T04:55:42;8.70;;;3.40;;
59685;SDS011;45554;51.096;16.976;2023-07-31T04:58:10;8.90;;;2.70;;
59685;SDS011;45554;51.096;16.976;2023-07-31T05:00:38;10.20;;;3.10;;
59685;SDS011;45554;51.096;16.976;2023-07-31T05:03:06;7.90;;;3.10;;
59685;SDS011;45554;51.096;16.976;2023-07-31T05:05:35;7.10;;;2.80;;
59685;SDS011;45554;51.096;16.976;2023-07-31T05:08:04;6.10;;;2.70;;
59685;SDS011;45554;51.096;16.976;2023-07-31T05:10:31;6.70;;;2.60;;
59685;SDS011;45554;51.096;16.976;2023-07-31T05:13:02;5.40;;;2.40;;
59685;SDS011;45554;51.096;16.976;2023-07-31T05:15:30;6.10;;;2.40;;
59685;SDS011;45554;51.096;16.976;2023-07-31T05:17:58;7.20;;;2.70;;
59685;SDS011;45554;51.096;16.976;2023-07-31T05:20:26;6.70;;;2.20;;
59685;SDS011;45554;51.096;16.976;2023-07-31T05:22:55;7.50;;;2.50;;
59685;SDS011;45554;51.096;16.976;2023-07-31T05:25:23;8.00;;;2.40;;
59685;SDS011;45554;51.096;16.976;2023-07-31T05:27:52;8.00;;;2.90;;
59685;SDS011;45554;51.096;16.976;2023-07-31T05:30:20;7.10;;;2.30;;
59685;SDS011;45554;51.096;16.976;2023-07-31T05:32:49;7.70;;;2.10;;
59685;SDS011;45554;51.096;16.976;2023-07-31T05:35:17;6.00;;;2.20;;
59685;SDS011;45554;51.096;16.976;2023-07-31T05:37:45;7.90;;;2.30;;
59685;SDS011;45554;51.096;16.976;2023-07-31T05:40:13;5.40;;;1.90;;
59685;SDS011;45554;51.096;16.976;2023-07-31T05:42:42;6.10;;;1.90;;
59685;SDS011;45554;51.096;16.976;2023-07-31T05:45:10;5.50;;;2.00;;
59685;SDS011;45554;51.096;16.976;2023-07-31T05:47:38;5.30;;;1.70;;
59685;SDS011;45554;51.096;16.976;2023-07-31T05:50:06;6.40;;;1.90;;
59685;SDS011;45554;51.096;16.976;2023-07-31T05:52:35;7.40;;;1.90;;
59685;SDS011;45554;51.096;16.976;2023-07-31T05:55:03;6.00;;;1.80;;
59685;SDS011;45554;51.096;16.976;2023-07-31T06:00:00;10.80;;;2.00;;
59685;SDS011;45554;51.096;16.976;2023-07-31T06:02:32;4.80;;;1.70;;
59685;SDS011;45554;51.096;16.976;2023-07-31T06:05:06;4.70;;;1.60;;
59685;SDS011;45554;51.096;16.976;2023-07-31T06:07:35;6.80;;;2.00;;
59685;SDS011;45554;51.096;16.976;2023-07-31T06:10:12;5.60;;;1.50;;
59685;SDS011;45554;51.096;16.976;2023-07-31T06:12:41;6.80;;;1.90;;
59685;SDS011;45554;51.096;16.976;2023-07-31T06:15:10;5.90;;;1.50;;
59685;SDS011;45554;51.096;16.976;2023-07-31T06:17:39;6.20;;;1.70;;
59685;SDS011;45554;51.096;16.976;2023-07-31T06:20:08;6.60;;;1.70;;
59685;SDS011;45554;51.096;16.976;2023-07-31T06:22:44;5.20;;;1.70;;
59685;SDS011;45554;51.096;16.976;2023-07-31T06:25:12;5.50;;;1.50;;
59685;SDS011;45554;51.096;16.976;2023-07-31T06:27:43;5.20;;;1.80;;
59685;SDS011;45554;51.096;16.976;2023-07-31T06:30:11;5.60;;;1.90;;
59685;SDS011;45554;51.096;16.976;2023-07-31T06:32:40;5.70;;;1.50;;
59685;SDS011;45554;51.096;16.976;2023-07-31T06:35:08;5.60;;;1.90;;
59685;SDS011;45554;51.096;16.976;2023-07-31T06:37:37;6.60;;;1.60;;
59685;SDS011;45554;51.096;16.976;2023-07-31T06:40:08;5.10;;;1.70;;
59685;SDS011;45554;51.096;16.976;2023-07-31T06:42:37;4.30;;;1.50;;
59685;SDS011;45554;51.096;16.976;2023-07-31T06:45:08;4.40;;;1.80;;
59685;SDS011;45554;51.096;16.976;2023-07-31T06:47:40;5.20;;;1.90;;
59685;SDS011;45554;51.096;16.976;2023-07-31T06:50:08;7.10;;;2.10;;
59685;SDS011;45554;51.096;16.976;2023-07-31T06:52:37;7.10;;;1.80;;
59685;SDS011;45554;51.096;16.976;2023-07-31T06:55:18;4.50;;;1.50;;
59685;SDS011;45554;51.096;16.976;2023-07-31T06:57:50;7.60;;;1.90;;
59685;SDS011;45554;51.096;16.976;2023-07-31T07:00:20;4.30;;;1.70;;
59685;SDS011;45554;51.096;16.976;2023-07-31T07:02:49;4.40;;;1.50;;
59685;SDS011;45554;51.096;16.976;2023-07-31T07:07:48;6.60;;;1.80;;
59685;SDS011;45554;51.096;16.976;2023-07-31T07:10:17;7.10;;;1.70;;
59685;SDS011;45554;51.096;16.976;2023-07-31T07:12:46;4.40;;;1.40;;
59685;SDS011;45554;51.096;16.976;2023-07-31T07:15:14;6.70;;;1.80;;
59685;SDS011;45554;51.096;16.976;2023-07-31T07:17:42;4.10;;;1.30;;
59685;SDS011;45554;51.096;16.976;2023-07-31T07:20:10;5.30;;;1.40;;
59685;SDS011;45554;51.096;16.976;2023-07-31T07:22:39;4.50;;;1.40;;
59685;SDS011;45554;51.096;16.976;2023-07-31T07:25:07;6.90;;;1.60;;
59685;SDS011;45554;51.096;16.976;2023-07-31T07:27:37;3.90;;;1.60;;
59685;SDS011;45554;51.096;16.976;2023-07-31T07:30:05;5.40;;;1.50;;
59685;SDS011;45554;51.096;16.976;2023-07-31T07:32:34;6.30;;;1.40;;
59685;SDS011;45554;51.096;16.976;2023-07-31T07:35:02;4.80;;;1.40;;
59685;SDS011;45554;51.096;16.976;2023-07-31T07:37:30;3.80;;;1.60;;
59685;SDS011;45554;51.096;16.976;2023-07-31T07:40:01;4.00;;;1.40;;
59685;SDS011;45554;51.096;16.976;2023-07-31T07:42:32;5.50;;;1.40;;
59685;SDS011;45554;51.096;16.976;2023-07-31T07:45:04;3.80;;;1.50;;
59685;SDS011;45554;51.096;16.976;2023-07-31T07:47:33;5.00;;;1.70;;
59685;SDS011;45554;51.096;16.976;2023-07-31T07:50:01;2.30;;;1.10;;
59685;SDS011;45554;51.096;16.976;2023-07-31T07:52:29;7.60;;;1.80;;
59685;SDS011;45554;51.096;16.976;2023-07-31T07:55:00;6.80;;;1.60;;
59685;SDS011;45554;51.096;16.976;2023-07-31T07:57:31;6.10;;;1.60;;
59685;SDS011;45554;51.096;16.976;2023-07-31T08:00:01;4.10;;;1.40;;
59685;SDS011;45554;51.096;16.976;2023-07-31T08:02:40;5.40;;;1.40;;
59685;SDS011;45554;51.096;16.976;2023-07-31T08:05:09;6.00;;;1.70;;
59685;SDS011;45554;51.096;16.976;2023-07-31T08:07:42;4.40;;;1.30;;
59685;SDS011;45554;51.096;16.976;2023-07-31T08:10:10;4.50;;;1.40;;
59685;SDS011;45554;51.096;16.976;2023-07-31T08:12:38;7.00;;;1.70;;
59685;SDS011;45554;51.096;16.976;2023-07-31T08:15:06;3.40;;;1.20;;
59685;SDS011;45554;51.096;16.976;2023-07-31T08:17:36;4.20;;;1.50;;
59685;SDS011;45554;51.096;16.976;2023-07-31T08:20:06;4.80;;;1.70;;
59685;SDS011;45554;51.096;16.976;2023-07-31T08:25:39;5.50;;;1.30;;
59685;SDS011;45554;51.096;16.976;2023-07-31T08:28:10;4.40;;;1.40;;
59685;SDS011;45554;51.096;16.976;2023-07-31T08:30:38;6.30;;;1.50;;
59685;SDS011;45554;51.096;16.976;2023-07-31T08:33:07;5.20;;;1.60;;
59685;SDS011;45554;51.096;16.976;2023-07-31T08:35:38;5.00;;;1.30;;
59685;SDS011;45554;51.096;16.976;2023-07-31T08:38:10;4.60;;;1.40;;
59685;SDS011;45554;51.096;16.976;2023-07-31T08:40:39;4.30;;;1.20;;
59685;SDS011;45554;51.096;16.976;2023-07-31T08:43:09;6.00;;;1.50;;
59685;SDS011;45554;51.096;16.976;2023-07-31T08:48:08;4.70;;;1.50;;
59685;SDS011;45554;51.096;16.976;2023-07-31T08:53:08;4.70;;;1.40;;
59685;SDS011;45554;51.096;16.976;2023-07-31T08:55:38;6.30;;;1.60;;
59685;SDS011;45554;51.096;16.976;2023-07-31T08:58:08;6.40;;;1.70;;
59685;SDS011;45554;51.096;16.976;2023-07-31T09:00:38;5.00;;;1.60;;
59685;SDS011;45554;51.096;16.976;2023-07-31T09:03:09;7.00;;;2.00;;
59685;SDS011;45554;51.096;16.976;2023-07-31T09:05:42;6.30;;;1.90;;
59685;SDS011;45554;51.096;16.976;2023-07-31T09:08:18;5.90;;;2.10;;
59685;SDS011;45554;51.096;16.976;2023-07-31T09:10:49;5.00;;;1.80;;
59685;SDS011;45554;51.096;16.976;2023-07-31T09:13:24;5.90;;;2.00;;
59685;SDS011;45554;51.096;16.976;2023-07-31T09:15:52;6.10;;;2.30;;
59685;SDS011;45554;51.096;16.976;2023-07-31T09:18:21;7.70;;;2.50;;
59685;SDS011;45554;51.096;16.976;2023-07-31T09:21:00;8.70;;;2.80;;
59685;SDS011;45554;51.096;16.976;2023-07-31T09:23:43;4.60;;;2.20;;
59685;SDS011;45554;51.096;16.976;2023-07-31T09:26:34;5.00;;;2.20;;
59685;SDS011;45554;51.096;16.976;2023-07-31T09:29:05;7.50;;;2.40;;
59685;SDS011;45554;51.096;16.976;2023-07-31T09:31:39;6.80;;;2.20;;
59685;SDS011;45554;51.096;16.976;2023-07-31T09:34:12;6.20;;;2.30;;
59685;SDS011;45554;51.096;16.976;2023-07-31T09:39:11;6.50;;;2.20;;
59685;SDS011;45554;51.096;16.976;2023-07-31T09:41:44;4.50;;;1.90;;
59685;SDS011;45554;51.096;16.976;2023-07-31T09:44:38;4.00;;;1.80;;
59685;SDS011;45554;51.096;16.976;2023-07-31T09:47:22;4.80;;;2.00;;
59685;SDS011;45554;51.096;16.976;2023-07-31T09:49:54;5.70;;;2.00;;
59685;SDS011;45554;51.096;16.976;2023-07-31T09:52:34;6.40;;;1.80;;
59685;SDS011;45554;51.096;16.976;2023-07-31T09:55:10;4.60;;;1.60;;
59685;SDS011;45554;51.096;16.976;2023-07-31T09:57:45;4.60;;;1.80;;
59685;SDS011;45554;51.096;16.976;2023-07-31T10:00:18;4.90;;;1.60;;
59685;SDS011;45554;51.096;16.976;2023-07-31T10:02:52;5.50;;;1.80;;
59685;SDS011;45554;51.096;16.976;2023-07-31T10:05:22;5.80;;;1.40;;
59685;SDS011;45554;51.096;16.976;2023-07-31T10:07:54;5.40;;;1.50;;
59685;SDS011;45554;51.096;16.976;2023-07-31T10:10:27;5.80;;;1.70;;
59685;SDS011;45554;51.096;16.976;2023-07-31T10:12:57;2.80;;;1.30;;
59685;SDS011;45554;51.096;16.976;2023-07-31T10:15:29;5.00;;;1.50;;
59685;SDS011;45554;51.096;16.976;2023-07-31T10:17:58;3.70;;;1.20;;
59685;SDS011;45554;51.096;16.976;2023-07-31T10:20:27;2.80;;;1.10;;
59685;SDS011;45554;51.096;16.976;2023-07-31T10:22:56;3.70;;;1.30;;
59685;SDS011;45554;51.096;16.976;2023-07-31T10:25:27;4.80;;;1.40;;
59685;SDS011;45554;51.096;16.976;2023-07-31T10:27:57;5.00;;;1.30;;
59685;SDS011;45554;51.096;16.976;2023-07-31T10:30:35;7.70;;;1.30;;
59685;SDS011;45554;51.096;16.976;2023-07-31T10:33:06;4.00;;;1.60;;
59685;SDS011;45554;51.096;16.976;2023-07-31T10:35:35;4.80;;;1.10;;
59685;SDS011;45554;51.096;16.976;2023-07-31T10:38:10;5.50;;;1.60;;
59685;SDS011;45554;51.096;16.976;2023-07-31T10:40:41;6.60;;;1.50;;
59685;SDS011;45554;51.096;16.976;2023-07-31T10:43:10;2.40;;;1.30;;
59685;SDS011;45554;51.096;16.976;2023-07-31T10:45:55;23.50;;;1.80;;
59685;SDS011;45554;51.096;16.976;2023-07-31T10:48:26;5.50;;;1.60;;
59685;SDS011;45554;51.096;16.976;2023-07-31T10:51:06;4.50;;;1.60;;
59685;SDS011;45554;51.096;16.976;2023-07-31T10:53:38;3.90;;;1.40;;
59685;SDS011;45554;51.096;16.976;2023-07-31T10:56:08;4.20;;;1.50;;
59685;SDS011;45554;51.096;16.976;2023-07-31T10:58:39;4.00;;;1.50;;
59685;SDS011;45554;51.096;16.976;2023-07-31T11:01:07;4.80;;;1.50;;
59685;SDS011;45554;51.096;16.976;2023-07-31T11:03:48;4.90;;;1.60;;
59685;SDS011;45554;51.096;16.976;2023-07-31T11:06:20;6.00;;;1.90;;
59685;SDS011;45554;51.096;16.976;2023-07-31T11:08:49;5.50;;;2.00;;
59685;SDS011;45554;51.096;16.976;2023-07-31T11:11:19;5.00;;;1.60;;
59685;SDS011;45554;51.096;16.976;2023-07-31T11:13:52;3.40;;;1.50;;
59685;SDS011;45554;51.096;16.976;2023-07-31T11:16:21;4.00;;;2.00;;
59685;SDS011;45554;51.096;16.976;2023-07-31T11:19:00;4.10;;;1.70;;
59685;SDS011;45554;51.096;16.976;2023-07-31T11:21:28;5.90;;;2.00;;
59685;SDS011;45554;51.096;16.976;2023-07-31T11:23:57;4.80;;;1.70;;
59685;SDS011;45554;51.096;16.976;2023-07-31T11:26:29;4.40;;;1.80;;
59685;SDS011;45554;51.096;16.976;2023-07-31T11:28:58;3.60;;;1.70;;
59685;SDS011;45554;51.096;16.976;2023-07-31T11:31:28;4.70;;;1.60;;
59685;SDS011;45554;51.096;16.976;2023-07-31T11:34:06;4.70;;;1.80;;
59685;SDS011;45554;51.096;16.976;2023-07-31T11:36:35;5.90;;;2.00;;
59685;SDS011;45554;51.096;16.976;2023-07-31T11:39:05;3.90;;;1.60;;
59685;SDS011;45554;51.096;16.976;2023-07-31T11:41:40;5.80;;;1.80;;
59685;SDS011;45554;51.096;16.976;2023-07-31T11:44:12;4.50;;;1.80;;
59685;SDS011;45554;51.096;16.976;2023-07-31T11:46:58;3.70;;;1.70;;
59685;SDS011;45554;51.096;16.976;2023-07-31T11:49:29;4.70;;;1.70;;
59685;SDS011;45554;51.096;16.976;2023-07-31T11:52:00;4.40;;;1.60;;
59685;SDS011;45554;51.096;16.976;2023-07-31T11:54:48;7.30;;;1.60;;
59685;SDS011;45554;51.096;16.976;2023-07-31T11:57:24;4.40;;;1.70;;
59685;SDS011;45554;51.096;16.976;2023-07-31T12:00:01;4.10;;;1.50;;
59685;SDS011;45554;51.096;16.976;2023-07-31T12:02:42;4.50;;;1.80;;
59685;SDS011;45554;51.096;16.976;2023-07-31T12:05:33;4.80;;;1.70;;
59685;SDS011;45554;51.096;16.976;2023-07-31T12:08:23;3.80;;;1.70;;
59685;SDS011;45554;51.096;16.976;2023-07-31T12:11:09;4.30;;;1.70;;
59685;SDS011;45554;51.096;16.976;2023-07-31T12:13:38;4.60;;;1.80;;
59685;SDS011;45554;51.096;16.976;2023-07-31T12:16:07;5.30;;;1.80;;
59685;SDS011;45554;51.096;16.976;2023-07-31T12:18:43;4.00;;;1.70;;
59685;SDS011;45554;51.096;16.976;2023-07-31T12:21:29;4.60;;;1.60;;
59685;SDS011;45554;51.096;16.976;2023-07-31T12:23:57;3.80;;;1.80;;
59685;SDS011;45554;51.096;16.976;2023-07-31T12:26:35;3.70;;;1.80;;
59685;SDS011;45554;51.096;16.976;2023-07-31T12:29:21;4.60;;;2.10;;
59685;SDS011;45554;51.096;16.976;2023-07-31T12:31:59;6.30;;;1.90;;
59685;SDS011;45554;51.096;16.976;2023-07-31T12:34:41;6.80;;;2.00;;
59685;SDS011;45554;51.096;16.976;2023-07-31T12:37:23;4.00;;;1.60;;
59685;SDS011;45554;51.096;16.976;2023-07-31T12:40:08;5.80;;;1.80;;
59685;SDS011;45554;51.096;16.976;2023-07-31T12:42:37;4.00;;;1.80;;
59685;SDS011;45554;51.096;16.976;2023-07-31T12:45:07;7.20;;;2.00;;
59685;SDS011;45554;51.096;16.976;2023-07-31T12:47:41;3.70;;;1.70;;
59685;SDS011;45554;51.096;16.976;2023-07-31T12:50:09;4.70;;;2.20;;
59685;SDS011;45554;51.096;16.976;2023-07-31T12:52:37;5.90;;;2.00;;
59685;SDS011;45554;51.096;16.976;2023-07-31T13:00:08;5.40;;;1.80;;
59685;SDS011;45554;51.096;16.976;2023-07-31T13:02:37;5.30;;;2.10;;
59685;SDS011;45554;51.096;16.976;2023-07-31T13:05:05;6.30;;;2.20;;
59685;SDS011;45554;51.096;16.976;2023-07-31T13:07:37;4.60;;;2.20;;
59685;SDS011;45554;51.096;16.976;2023-07-31T13:12:37;5.00;;;2.40;;
59685;SDS011;45554;51.096;16.976;2023-07-31T13:15:06;6.50;;;2.20;;
59685;SDS011;45554;51.096;16.976;2023-07-31T13:17:35;5.30;;;2.10;;
59685;SDS011;45554;51.096;16.976;2023-07-31T13:20:05;5.70;;;2.20;;
59685;SDS011;45554;51.096;16.976;2023-07-31T13:22:41;6.40;;;2.10;;
59685;SDS011;45554;51.096;16.976;2023-07-31T13:25:13;4.10;;;2.20;;
59685;SDS011;45554;51.096;16.976;2023-07-31T13:27:42;5.30;;;2.30;;
59685;SDS011;45554;51.096;16.976;2023-07-31T13:30:10;9.20;;;2.30;;
59685;SDS011;45554;51.096;16.976;2023-07-31T13:37:35;6.00;;;2.20;;
59685;SDS011;45554;51.096;16.976;2023-07-31T13:40:04;4.30;;;1.90;;
59685;SDS011;45554;51.096;16.976;2023-07-31T13:42:33;5.90;;;2.30;;
59685;SDS011;45554;51.096;16.976;2023-07-31T13:45:01;5.60;;;2.40;;
59685;SDS011;45554;51.096;16.976;2023-07-31T13:47:34;4.00;;;2.20;;
59685;SDS011;45554;51.096;16.976;2023-07-31T13:50:09;4.30;;;2.20;;
59685;SDS011;45554;51.096;16.976;2023-07-31T13:52:37;5.10;;;2.40;;
59685;SDS011;45554;51.096;16.976;2023-07-31T13:55:06;5.30;;;2.20;;
59685;SDS011;45554;51.096;16.976;2023-07-31T13:57:34;6.30;;;2.20;;
59685;SDS011;45554;51.096;16.976;2023-07-31T14:02:33;4.70;;;2.10;;
59685;SDS011;45554;51.096;16.976;2023-07-31T14:05:01;7.50;;;2.40;;
59685;SDS011;45554;51.096;16.976;2023-07-31T14:07:30;6.60;;;2.50;;
59685;SDS011;45554;51.096;16.976;2023-07-31T14:10:04;6.00;;;2.10;;
59685;SDS011;45554;51.096;16.976;2023-07-31T14:17:22;4.20;;;2.10;;
59685;SDS011;45554;51.096;16.976;2023-07-31T14:24:13;3.80;;;1.80;;
59685;SDS011;45554;51.096;16.976;2023-07-31T14:27:51;4.90;;;2.10;;
59685;SDS011;45554;51.096;16.976;2023-07-31T14:32:00;4.70;;;2.10;;
59685;SDS011;45554;51.096;16.976;2023-07-31T14:36:02;4.60;;;2.00;;
59685;SDS011;45554;51.096;16.976;2023-07-31T14:40:35;5.10;;;2.10;;
59685;SDS011;45554;51.096;16.976;2023-07-31T14:49:27;4.50;;;1.90;;
59685;SDS011;45554;51.096;16.976;2023-07-31T14:53:29;4.40;;;2.00;;
59685;SDS011;45554;51.096;16.976;2023-07-31T14:59:39;3.80;;;1.90;;
59685;SDS011;45554;51.096;16.976;2023-07-31T15:07:00;4.40;;;2.00;;
59685;SDS011;45554;51.096;16.976;2023-07-31T15:09:32;4.10;;;2.00;;
59685;SDS011;45554;51.096;16.976;2023-07-31T15:11:59;4.60;;;1.90;;
59685;SDS011;45554;51.096;16.976;2023-07-31T15:14:30;5.40;;;2.20;;
59685;SDS011;45554;51.096;16.976;2023-07-31T15:17:01;4.80;;;2.30;;
59685;SDS011;45554;51.096;16.976;2023-07-31T15:21:25;4.60;;;2.30;;
59685;SDS011;45554;51.096;16.976;2023-07-31T15:24:48;4.10;;;2.20;;
59685;SDS011;45554;51.096;16.976;2023-07-31T15:27:30;3.40;;;1.80;;
59685;SDS011;45554;51.096;16.976;2023-07-31T15:30:00;4.70;;;2.30;;
59685;SDS011;45554;51.096;16.976;2023-07-31T15:32:29;5.30;;;2.10;;
59685;SDS011;45554;51.096;16.976;2023-07-31T15:34:56;5.40;;;2.30;;
59685;SDS011;45554;51.096;16.976;2023-07-31T15:37:25;4.40;;;2.00;;
59685;SDS011;45554;51.096;16.976;2023-07-31T15:39:55;4.80;;;2.20;;
59685;SDS011;45554;51.096;16.976;2023-07-31T15:42:25;5.40;;;2.10;;
59685;SDS011;45554;51.096;16.976;2023-07-31T15:44:53;5.30;;;2.20;;
59685;SDS011;45554;51.096;16.976;2023-07-31T15:47:21;3.90;;;2.00;;
59685;SDS011;45554;51.096;16.976;2023-07-31T15:49:49;4.30;;;2.20;;
59685;SDS011;45554;51.096;16.976;2023-07-31T15:52:17;5.40;;;2.00;;
59685;SDS011;45554;51.096;16.976;2023-07-31T15:54:45;3.90;;;2.00;;
59685;SDS011;45554;51.096;16.976;2023-07-31T15:57:13;3.90;;;2.00;;
59685;SDS011;45554;51.096;16.976;2023-07-31T15:59:41;5.00;;;2.30;;
59685;SDS011;45554;51.096;16.976;2023-07-31T16:02:09;3.10;;;1.80;;
59685;SDS011;45554;51.096;16.976;2023-07-31T16:04:41;3.70;;;2.00;;
59685;SDS011;45554;51.096;16.976;2023-07-31T16:07:09;4.40;;;1.90;;
59685;SDS011;45554;51.096;16.976;2023-07-31T16:09:37;4.60;;;2.10;;
59685;SDS011;45554;51.096;16.976;2023-07-31T16:12:05;4.10;;;2.00;;